createdAt,value
2019-03-18T00:00:44.431Z,74.00
2019-03-18T00:03:16.407Z,73.81
2019-03-18T00:05:49.519Z,73.86
2019-03-18T00:08:21.522Z,72.86
2019-03-18T00:10:53.797Z,72.32
2019-03-18T00:13:25.775Z,71.54
2019-03-18T00:15:57.791Z,71.94
2019-03-18T00:18:29.743Z,72.09
2019-03-18T00:21:01.762Z,72.84
2019-03-18T00:23:33.719Z,72.11
2019-03-18T00:26:05.694Z,71.09
2019-03-18T00:28:37.679Z,70.65
2019-03-18T00:31:09.817Z,71.62
2019-03-18T00:33:41.771Z,71.41
2019-03-18T00:36:13.746Z,71.99
2019-03-18T00:38:45.726Z,72.07
2019-03-18T00:41:17.708Z,73.24
2019-03-18T00:43:49.688Z,73.11
2019-03-18T00:46:21.665Z,73.11
2019-03-18T00:48:53.628Z,73.69
2019-03-18T00:51:25.605Z,72.92
2019-03-18T00:53:57.558Z,72.74
2019-03-18T00:56:29.548Z,72.93
2019-03-18T00:59:01.508Z,71.30
2019-03-18T01:01:35.693Z,69.45
2019-03-18T01:04:07.678Z,69.61
2019-03-18T01:06:39.664Z,69.89
2019-03-18T01:09:11.622Z,70.08
2019-03-18T01:11:43.582Z,70.75
2019-03-18T01:14:15.533Z,70.69
2019-03-18T01:16:47.526Z,70.55
2019-03-18T01:19:19.498Z,71.47
2019-03-18T01:21:53.265Z,70.61
2019-03-18T01:24:25.243Z,70.61
2019-03-18T01:26:57.202Z,70.09
2019-03-18T01:29:29.225Z,71.07
2019-03-18T01:32:01.171Z,71.32
2019-03-18T01:34:33.166Z,71.30
2019-03-18T01:37:05.117Z,71.37
2019-03-18T01:39:37.088Z,70.70
2019-03-18T01:42:09.063Z,70.39
2019-03-18T01:44:41.080Z,69.80
2019-03-18T01:47:13.015Z,69.32
2019-03-18T01:49:45.016Z,68.31
2019-03-18T01:52:16.982Z,68.64
2019-03-18T01:54:48.988Z,68.52
2019-03-18T01:57:20.964Z,67.97
2019-03-18T01:59:52.935Z,68.79
2019-03-18T02:02:24.988Z,68.90
2019-03-18T02:04:56.956Z,68.43
2019-03-18T02:07:28.884Z,68.66
2019-03-18T02:10:00.887Z,68.33
2019-03-18T02:12:32.853Z,68.35
2019-03-18T02:15:05.401Z,68.78
2019-03-18T02:17:37.349Z,68.52
2019-03-18T02:20:09.349Z,69.04
2019-03-18T02:22:41.298Z,68.28
2019-03-18T02:25:13.283Z,67.99
2019-03-18T02:27:45.247Z,68.00
2019-03-18T02:30:17.856Z,68.68
2019-03-18T02:32:49.930Z,69.11
2019-03-18T02:35:21.906Z,68.89
2019-03-18T02:37:53.850Z,69.10
2019-03-18T02:40:25.804Z,69.07
2019-03-18T02:42:57.756Z,68.81
2019-03-18T02:45:29.709Z,68.70
2019-03-18T02:48:01.687Z,68.48
2019-03-18T02:50:33.633Z,68.58
2019-03-18T02:53:05.629Z,69.24
2019-03-18T02:55:37.773Z,68.95
2019-03-18T02:58:09.726Z,68.82
2019-03-18T03:00:41.689Z,68.77
2019-03-18T03:03:13.641Z,68.58
2019-03-18T03:05:45.620Z,68.89
2019-03-18T03:08:17.593Z,70.34
2019-03-18T03:10:49.586Z,71.22
2019-03-18T03:13:21.612Z,71.53
2019-03-18T03:15:53.597Z,71.64
2019-03-18T03:18:25.569Z,71.56
2019-03-18T03:20:57.523Z,71.42
2019-03-18T03:23:29.497Z,71.74
2019-03-18T03:26:01.537Z,71.34
2019-03-18T03:28:33.523Z,71.29
2019-03-18T03:31:05.482Z,71.00
2019-03-18T03:33:37.641Z,70.63
2019-03-18T03:36:09.769Z,70.43
2019-03-18T03:38:42.248Z,70.62
2019-03-18T03:41:17.637Z,70.60
2019-03-18T03:43:48.059Z,70.46
2019-03-18T03:46:20.056Z,70.50
2019-03-18T03:48:52.047Z,70.34
2019-03-18T03:51:24.018Z,70.36
2019-03-18T03:53:56.011Z,70.99
2019-03-18T03:56:28.062Z,71.34
2019-03-18T03:59:00.033Z,70.46
2019-03-18T04:01:31.980Z,70.40
2019-03-18T04:04:04.170Z,69.89
2019-03-18T04:06:36.118Z,70.51
2019-03-18T04:09:08.093Z,70.52
2019-03-18T04:11:40.043Z,70.07
2019-03-18T04:14:12.228Z,70.69
2019-03-18T04:16:55.850Z,71.08
2019-03-18T04:19:18.128Z,71.43
2019-03-18T04:21:50.998Z,71.62
2019-03-18T04:24:23.195Z,70.96
2019-03-18T04:26:55.095Z,70.21
2019-03-18T04:29:27.080Z,69.38
2019-03-18T04:31:59.062Z,68.14
2019-03-18T04:34:31.045Z,69.25
2019-03-18T04:37:03.007Z,69.99
2019-03-18T04:39:34.969Z,70.43
2019-03-18T04:42:06.919Z,69.97
2019-03-18T04:44:38.904Z,69.30
2019-03-18T04:47:14.523Z,69.27
2019-03-18T04:49:44.741Z,67.66
2019-03-18T04:52:16.726Z,67.81
2019-03-18T04:54:48.788Z,67.58
2019-03-18T04:57:20.741Z,67.46
2019-03-18T04:59:52.891Z,67.71
2019-03-18T05:02:24.872Z,68.01
2019-03-18T05:04:56.836Z,67.24
2019-03-18T05:07:28.779Z,67.31
2019-03-18T05:10:00.775Z,67.96
2019-03-18T05:12:32.728Z,67.34
2019-03-18T05:15:05.153Z,66.67
2019-03-18T05:17:37.101Z,67.29
2019-03-18T05:20:10.245Z,67.12
2019-03-18T05:22:42.206Z,67.56
2019-03-18T05:25:14.263Z,67.31
2019-03-18T05:27:46.246Z,68.01
2019-03-18T05:30:18.229Z,67.90
2019-03-18T05:32:50.173Z,68.53
2019-03-18T05:35:22.202Z,67.85
2019-03-18T05:37:54.165Z,67.43
2019-03-18T05:40:26.131Z,67.74
2019-03-18T05:42:58.127Z,67.58
2019-03-18T05:45:30.073Z,67.44
2019-03-18T05:48:02.054Z,67.38
2019-03-18T05:50:34.004Z,67.70
2019-03-18T05:53:07.085Z,68.36
2019-03-18T05:55:39.003Z,69.79
2019-03-18T05:58:10.971Z,69.80
2019-03-18T06:00:43.027Z,68.70
2019-03-18T06:03:15.018Z,68.84
2019-03-18T06:05:46.956Z,69.31
2019-03-18T06:08:18.963Z,69.52
2019-03-18T06:10:51.244Z,69.30
2019-03-18T06:13:23.250Z,69.74
2019-03-18T06:15:55.231Z,68.83
2019-03-18T06:18:27.216Z,69.27
2019-03-18T06:20:59.218Z,69.18
2019-03-18T06:23:31.184Z,69.23
2019-03-18T06:26:03.254Z,69.31
2019-03-18T06:28:35.237Z,68.29
2019-03-18T06:31:07.214Z,66.96
2019-03-18T06:33:39.193Z,64.86
2019-03-18T06:36:11.150Z,65.08
2019-03-18T06:38:43.179Z,65.33
2019-03-18T06:41:15.124Z,64.42
2019-03-18T06:43:47.110Z,65.42
2019-03-18T06:46:19.040Z,65.42
2019-03-18T06:48:51.008Z,66.45
2019-03-18T06:51:23.075Z,66.51
2019-03-18T06:56:40.358Z,67.84
2019-03-18T06:59:12.356Z,68.29
2019-03-18T07:01:44.324Z,68.69
2019-03-18T07:04:16.302Z,68.71
2019-03-18T07:06:48.263Z,68.20
2019-03-18T07:09:20.249Z,68.41
2019-03-18T07:11:52.195Z,68.45
2019-03-18T07:14:24.162Z,68.26
2019-03-18T07:16:56.132Z,67.45
2019-03-18T07:19:28.097Z,68.27
2019-03-18T07:22:00.055Z,68.68
2019-03-18T07:24:32.034Z,68.05
2019-03-18T07:27:03.991Z,67.04
2019-03-18T07:29:35.949Z,67.91
2019-03-18T07:32:07.958Z,67.82
2019-03-18T07:34:39.907Z,68.33
2019-03-18T07:37:11.908Z,67.56
2019-03-18T07:39:43.836Z,67.17
2019-03-18T07:42:35.284Z,67.17
2019-03-18T07:45:08.149Z,66.14
2019-03-18T07:47:40.161Z,66.95
2019-03-18T07:50:12.134Z,66.54
2019-03-18T07:52:44.105Z,67.55
2019-03-18T07:55:16.062Z,67.26
2019-03-18T07:57:48.055Z,66.94
2019-03-18T08:00:20.008Z,66.67
2019-03-18T08:02:51.975Z,66.39
2019-03-18T08:05:23.938Z,66.96
2019-03-18T08:07:55.914Z,66.52
2019-03-18T08:10:27.880Z,67.66
2019-03-18T08:12:59.859Z,67.68
2019-03-18T08:15:31.807Z,68.41
2019-03-18T08:18:03.795Z,69.75
2019-03-18T08:20:35.732Z,70.79
2019-03-18T08:23:07.710Z,71.94
2019-03-18T08:25:39.643Z,71.74
2019-03-18T08:28:11.610Z,71.50
2019-03-18T08:30:43.553Z,70.38
2019-03-18T08:33:15.546Z,70.58
2019-03-18T08:35:47.503Z,70.72
2019-03-18T08:38:19.489Z,72.72
2019-03-18T08:40:51.442Z,72.06
2019-03-18T08:43:23.430Z,71.14
2019-03-18T08:45:55.460Z,71.78
2019-03-18T08:48:27.371Z,71.69
2019-03-18T08:50:59.326Z,70.72
2019-03-18T08:53:31.285Z,71.70
2019-03-18T08:56:03.272Z,70.08
2019-03-18T08:58:35.255Z,70.21
2019-03-18T09:01:07.212Z,69.47
2019-03-18T09:03:39.169Z,66.83
2019-03-18T09:06:11.152Z,65.36
2019-03-18T09:08:43.197Z,64.69
2019-03-18T09:11:15.148Z,62.71
2019-03-18T09:13:47.121Z,60.70
2019-03-18T09:16:19.066Z,60.09
2019-03-18T09:18:51.075Z,59.57
2019-03-18T09:21:23.028Z,59.03
2019-03-18T09:23:55.118Z,59.58
2019-03-18T09:26:27.103Z,60.05
2019-03-18T09:28:59.088Z,58.73
2019-03-18T09:31:31.067Z,59.66
2019-03-18T09:34:03.035Z,58.41
2019-03-18T09:36:35.012Z,59.02
2019-03-18T09:39:07.418Z,61.09
2019-03-18T09:41:41.835Z,59.39
2019-03-18T09:44:13.766Z,56.71
2019-03-18T09:46:45.749Z,56.56
2019-03-18T09:49:21.994Z,56.19
2019-03-18T09:51:51.627Z,54.03
2019-03-18T09:54:23.552Z,53.02
2019-03-18T09:56:55.507Z,52.23
2019-03-18T09:59:27.485Z,51.44
2019-03-18T10:01:59.427Z,51.99
2019-03-18T10:04:31.385Z,53.49
2019-03-18T10:07:03.344Z,50.40
2019-03-18T10:09:35.320Z,50.22
2019-03-18T10:12:07.297Z,51.07
2019-03-18T10:14:58.727Z,51.95
2019-03-18T10:17:30.759Z,51.95
2019-03-18T10:20:02.884Z,51.91
2019-03-18T10:22:36.032Z,52.08
2019-03-18T10:25:08.744Z,54.16
2019-03-18T10:27:40.702Z,54.18
2019-03-18T10:30:12.735Z,55.25
2019-03-18T10:32:44.713Z,53.94
2019-03-18T10:35:16.666Z,51.48
2019-03-18T10:37:48.673Z,51.36
2019-03-18T10:40:20.649Z,51.20
2019-03-18T10:42:52.591Z,51.95
2019-03-18T10:45:25.965Z,51.14
2019-03-18T10:47:58.534Z,50.65
2019-03-18T10:50:30.462Z,49.48
2019-03-18T10:53:04.407Z,49.81
2019-03-18T10:55:36.579Z,49.40
2019-03-18T10:58:08.552Z,47.48
2019-03-18T11:00:40.534Z,47.34
2019-03-18T11:03:12.525Z,47.23
2019-03-18T11:05:44.485Z,43.78
2019-03-18T11:08:16.485Z,44.33
2019-03-18T11:10:48.453Z,42.30
2019-03-18T11:13:20.462Z,42.38
2019-03-18T11:15:52.431Z,41.09
2019-03-18T11:18:24.423Z,41.74
2019-03-18T11:20:56.373Z,42.95
2019-03-18T11:23:28.394Z,42.01
2019-03-18T11:26:00.342Z,42.12
2019-03-18T11:28:32.343Z,40.19
2019-03-18T11:31:04.345Z,41.14
2019-03-18T11:33:36.355Z,43.04
2019-03-18T11:36:08.333Z,41.98
2019-03-18T11:38:40.310Z,40.29
2019-03-18T11:41:12.259Z,40.08
2019-03-18T11:43:44.264Z,39.54
2019-03-18T11:46:16.250Z,40.76
2019-03-18T11:48:48.195Z,40.82
2019-03-18T11:51:20.191Z,40.92
2019-03-18T11:53:52.162Z,40.67
2019-03-18T11:56:24.168Z,40.79
2019-03-18T11:58:56.216Z,40.40
2019-03-18T12:01:28.240Z,41.14
2019-03-18T12:04:00.254Z,40.70
2019-03-18T12:06:32.253Z,38.52
2019-03-18T12:09:05.591Z,37.73
2019-03-18T12:11:37.601Z,39.01
2019-03-18T12:14:09.623Z,39.74
2019-03-18T12:16:41.639Z,39.45
2019-03-18T12:19:13.623Z,39.93
2019-03-18T12:21:45.631Z,39.90
2019-03-18T12:24:17.644Z,39.01
2019-03-18T12:26:49.632Z,37.66
2019-03-18T12:29:21.605Z,38.86
2019-03-18T12:31:53.587Z,39.16
2019-03-18T12:34:25.665Z,39.28
2019-03-18T12:36:57.668Z,38.86
2019-03-18T12:39:29.656Z,37.99
2019-03-18T12:42:01.649Z,37.85
2019-03-18T12:44:33.635Z,38.97
2019-03-18T12:47:05.630Z,40.66
2019-03-18T12:49:37.607Z,40.36
2019-03-18T12:52:09.750Z,40.87
2019-03-18T12:54:41.725Z,39.40
2019-03-18T12:57:13.730Z,39.56
2019-03-18T12:59:45.749Z,39.63
2019-03-18T13:02:17.776Z,40.05
2019-03-18T13:04:49.720Z,41.07
2019-03-18T13:07:21.771Z,40.76
2019-03-18T13:09:53.725Z,39.49
2019-03-18T13:12:25.718Z,40.50
2019-03-18T13:14:57.676Z,40.50
2019-03-18T13:17:29.655Z,40.77
2019-03-18T13:20:01.695Z,39.37
2019-03-18T13:22:33.671Z,39.01
2019-03-18T13:25:06.021Z,39.39
2019-03-18T13:27:38.036Z,39.89
2019-03-18T13:30:15.204Z,41.18
2019-03-18T13:32:46.026Z,41.78
2019-03-18T13:35:18.013Z,42.05
2019-03-18T13:37:50.036Z,42.05
2019-03-18T13:40:22.098Z,41.10
2019-03-18T13:42:54.105Z,41.10
2019-03-18T13:45:26.072Z,39.75
2019-03-18T13:47:58.088Z,38.94
2019-03-18T13:50:30.084Z,39.44
2019-03-18T13:53:02.102Z,39.33
2019-03-18T13:55:34.145Z,40.05
2019-03-18T13:58:06.208Z,40.08
2019-03-18T14:00:38.232Z,40.21
2019-03-18T14:03:10.214Z,40.50
2019-03-18T14:05:42.217Z,39.99
2019-03-18T14:08:14.189Z,39.87
2019-03-18T14:10:46.197Z,40.24
2019-03-18T14:13:18.173Z,41.00
2019-03-18T14:15:50.170Z,40.85
2019-03-18T14:18:22.155Z,40.24
2019-03-18T14:20:54.196Z,40.81
2019-03-18T14:23:26.195Z,41.26
2019-03-18T14:25:58.253Z,40.36
2019-03-18T14:28:30.261Z,41.14
2019-03-18T14:31:02.260Z,40.91
2019-03-18T14:33:34.261Z,41.25
2019-03-18T14:36:06.273Z,40.73
2019-03-18T14:38:38.620Z,40.37
2019-03-18T14:41:10.705Z,39.65
2019-03-18T14:43:42.670Z,39.97
2019-03-18T14:46:14.700Z,38.97
2019-03-18T14:48:46.650Z,38.74
2019-03-18T14:51:18.624Z,38.45
2019-03-18T14:53:50.603Z,38.81
2019-03-18T14:56:22.601Z,39.34
2019-03-18T14:58:54.543Z,39.78
2019-03-18T15:01:26.566Z,40.49
2019-03-18T15:03:58.590Z,41.49
2019-03-18T15:06:30.611Z,42.43
2019-03-18T15:09:03.632Z,42.86
2019-03-18T15:11:37.064Z,43.56
2019-03-18T15:14:09.060Z,43.49
2019-03-18T15:16:41.077Z,43.94
2019-03-18T15:19:13.085Z,43.60
2019-03-18T15:21:57.511Z,44.61
2019-03-18T15:24:19.009Z,45.39
2019-03-18T15:26:51.007Z,46.33
2019-03-18T15:29:23.016Z,47.88
2019-03-18T15:31:55.094Z,51.15
2019-03-18T15:34:27.101Z,51.15
2019-03-18T15:36:59.184Z,52.24
2019-03-18T15:39:31.178Z,53.55
2019-03-18T15:42:03.189Z,57.40
2019-03-18T15:44:36.978Z,58.15
2019-03-18T15:47:09.076Z,57.71
2019-03-18T15:49:41.167Z,59.12
2019-03-18T15:52:14.974Z,58.74
2019-03-18T15:54:53.695Z,59.99
2019-03-18T15:57:29.402Z,60.07
2019-03-18T15:59:54.794Z,59.44
2019-03-18T16:02:26.805Z,59.68
2019-03-18T16:04:58.792Z,58.98
2019-03-18T16:07:30.768Z,58.81
2019-03-18T16:10:02.976Z,59.59
2019-03-18T16:12:35.008Z,58.98
2019-03-18T16:15:07.990Z,58.49
2019-03-18T16:17:41.634Z,58.60
2019-03-18T16:20:14.003Z,58.24
2019-03-18T16:22:45.966Z,57.83
2019-03-18T16:25:17.963Z,58.01
2019-03-18T16:27:49.952Z,58.36
2019-03-18T16:30:21.990Z,58.77
2019-03-18T16:32:53.969Z,59.11
2019-03-18T16:35:25.959Z,60.09
2019-03-18T16:37:58.499Z,60.41
2019-03-18T16:40:30.470Z,60.22
2019-03-18T16:43:02.427Z,60.71
2019-03-18T16:45:34.433Z,61.46
2019-03-18T16:48:06.445Z,61.03
2019-03-18T16:50:38.477Z,59.67
2019-03-18T16:53:10.547Z,59.09
2019-03-18T16:55:42.583Z,58.81
2019-03-18T16:58:14.722Z,60.15
2019-03-18T17:00:46.786Z,60.76
2019-03-18T17:03:18.900Z,61.91
2019-03-18T17:05:51.016Z,62.48
2019-03-18T17:08:23.008Z,63.07
2019-03-18T17:10:55.125Z,63.50
2019-03-18T17:13:27.110Z,63.33
2019-03-18T17:15:59.136Z,62.92
2019-03-18T17:18:31.171Z,63.28
2019-03-18T17:21:03.277Z,63.50
2019-03-18T17:23:35.269Z,63.29
2019-03-18T17:26:07.283Z,62.69
2019-03-18T17:28:39.309Z,63.22
2019-03-18T17:31:11.426Z,63.54
2019-03-18T17:33:43.441Z,63.66
2019-03-18T17:36:15.505Z,64.01
2019-03-18T17:38:47.532Z,64.30
2019-03-18T17:41:19.568Z,63.60
2019-03-18T17:43:51.789Z,64.09
2019-03-18T17:46:23.896Z,64.24
2019-03-18T17:48:55.966Z,64.53
2019-03-18T17:51:27.954Z,64.67
2019-03-18T17:54:00.134Z,64.50
2019-03-18T17:56:32.120Z,64.82
2019-03-18T17:59:04.232Z,64.76
2019-03-18T18:01:36.273Z,65.17
2019-03-18T18:04:08.351Z,64.75
2019-03-18T18:06:40.417Z,64.70
2019-03-18T18:09:12.516Z,66.45
2019-03-18T18:11:44.544Z,67.27
2019-03-18T18:14:16.563Z,67.27
2019-03-18T18:16:48.639Z,67.82
2019-03-18T18:19:20.710Z,67.60
2019-03-18T18:21:52.777Z,69.28
2019-03-18T18:24:24.839Z,70.09
2019-03-18T18:26:56.869Z,68.53
2019-03-18T18:29:28.962Z,68.38
2019-03-18T18:32:00.965Z,69.50
2019-03-18T18:34:33.006Z,70.29
2019-03-18T18:37:06.788Z,71.15
2019-03-18T18:39:40.713Z,71.71
2019-03-18T18:42:14.491Z,72.05
2019-03-18T18:44:46.510Z,71.39
2019-03-18T18:47:20.817Z,71.81
2019-03-18T18:49:52.934Z,71.03
2019-03-18T18:52:25.008Z,71.31
2019-03-18T18:54:57.074Z,72.84
2019-03-18T18:57:29.146Z,73.51
2019-03-18T19:00:01.243Z,73.54
2019-03-18T19:02:33.244Z,73.65
2019-03-18T19:05:06.184Z,73.29
2019-03-18T19:07:38.219Z,72.17
2019-03-18T19:10:10.838Z,72.71
2019-03-18T19:12:43.289Z,74.21
2019-03-18T19:15:17.084Z,73.85
2019-03-18T19:17:49.102Z,73.80
2019-03-18T19:20:21.184Z,74.28
2019-03-18T19:22:53.236Z,74.25
2019-03-18T19:25:25.325Z,73.36
2019-03-18T19:27:57.426Z,73.22
2019-03-18T19:30:29.683Z,73.43
2019-03-18T19:33:01.877Z,73.92
2019-03-18T19:35:33.947Z,74.96
2019-03-18T19:38:06.008Z,75.66
2019-03-18T19:40:38.123Z,75.83
2019-03-18T19:43:12.705Z,74.70
2019-03-18T19:45:44.819Z,74.84
2019-03-18T19:48:16.835Z,75.27
2019-03-18T19:50:48.893Z,75.35
2019-03-18T19:53:20.972Z,76.28
2019-03-18T19:55:52.981Z,76.48
2019-03-18T19:58:25.164Z,75.46
2019-03-18T20:00:57.192Z,76.09
2019-03-18T20:03:29.291Z,76.42
2019-03-18T20:06:01.300Z,76.15
2019-03-18T20:08:33.367Z,76.02
2019-03-18T20:11:05.442Z,76.17
2019-03-18T20:13:37.465Z,77.14
2019-03-18T20:16:09.533Z,76.57
2019-03-18T20:18:41.605Z,75.54
2019-03-18T20:21:13.658Z,76.61
2019-03-18T20:23:45.715Z,77.09
2019-03-18T20:26:17.748Z,77.86
2019-03-18T20:28:49.784Z,78.33
2019-03-18T20:31:25.990Z,78.82
2019-03-18T20:33:55.845Z,77.64
2019-03-18T20:36:27.864Z,78.46
2019-03-18T20:38:59.979Z,79.06
2019-03-18T20:41:32.040Z,79.59
2019-03-18T20:44:04.227Z,80.32
2019-03-18T20:46:36.357Z,80.39
2019-03-18T20:49:08.369Z,81.12
2019-03-18T20:51:40.393Z,81.98
2019-03-18T20:54:12.517Z,82.79
2019-03-18T20:56:44.509Z,82.75
2019-03-18T20:59:16.523Z,82.65
2019-03-18T21:01:48.536Z,82.61
2019-03-18T21:04:20.566Z,82.51
2019-03-18T21:06:52.566Z,82.65
2019-03-18T21:09:24.634Z,82.57
2019-03-18T21:11:56.641Z,82.64
2019-03-18T21:14:28.741Z,82.49
2019-03-18T21:17:00.827Z,82.24
2019-03-18T21:19:33.183Z,82.67
2019-03-18T21:22:05.303Z,82.72
2019-03-18T21:24:37.317Z,82.55
2019-03-18T21:27:09.358Z,82.56
2019-03-18T21:29:41.457Z,82.46
2019-03-18T21:32:13.469Z,82.73
2019-03-18T21:34:45.535Z,82.36
2019-03-18T21:37:17.592Z,82.40
2019-03-18T21:39:49.640Z,82.34
2019-03-18T21:42:21.661Z,81.94
2019-03-18T21:44:53.611Z,81.98
2019-03-18T21:47:25.735Z,82.49
2019-03-18T21:49:58.440Z,82.01
2019-03-18T21:52:34.807Z,81.86
2019-03-18T21:55:06.819Z,82.01
2019-03-18T21:57:38.841Z,82.48
2019-03-18T22:00:12.556Z,82.86
2019-03-18T22:02:44.715Z,82.75
2019-03-18T22:05:16.748Z,82.94
2019-03-18T22:07:48.731Z,82.62
2019-03-18T22:10:20.843Z,82.37
2019-03-18T22:12:52.840Z,82.60
2019-03-18T22:15:24.857Z,83.01
2019-03-18T22:17:56.839Z,82.86
2019-03-18T22:20:28.821Z,82.43
2019-03-18T22:23:00.885Z,82.81
2019-03-18T22:25:34.723Z,82.88
2019-03-18T22:28:06.806Z,82.61
2019-03-18T22:30:41.105Z,82.90
2019-03-18T22:33:13.105Z,83.26
2019-03-18T22:35:46.335Z,82.62
2019-03-18T22:38:18.334Z,83.16
2019-03-18T22:40:50.295Z,83.40
2019-03-18T22:43:22.279Z,83.47
2019-03-18T22:45:54.253Z,83.39
2019-03-18T22:48:26.263Z,83.79
2019-03-18T22:50:58.223Z,83.81
2019-03-18T22:53:30.194Z,82.97
2019-03-18T22:56:02.165Z,82.88
2019-03-18T22:58:35.972Z,83.31
2019-03-18T23:01:13.303Z,82.16
2019-03-18T23:03:45.320Z,82.21
2019-03-18T23:06:17.429Z,82.94
2019-03-18T23:08:50.541Z,83.28
2019-03-18T23:11:22.523Z,83.01
2019-03-18T23:13:54.515Z,83.02
2019-03-18T23:16:26.489Z,83.35
2019-03-18T23:18:58.490Z,83.18
2019-03-18T23:21:30.459Z,83.38
2019-03-18T23:24:02.407Z,83.18
2019-03-18T23:26:34.539Z,83.15
2019-03-18T23:29:06.567Z,83.46
2019-03-18T23:31:40.395Z,83.45
2019-03-18T23:34:12.412Z,83.26
2019-03-18T23:36:47.172Z,83.06
2019-03-18T23:39:19.205Z,83.25
2019-03-18T23:41:51.230Z,81.84
2019-03-18T23:44:24.450Z,81.24
2019-03-18T23:46:57.557Z,81.92
2019-03-18T23:49:32.481Z,82.36
2019-03-18T23:52:04.549Z,82.38
2019-03-18T23:54:36.533Z,82.63
2019-03-18T23:57:08.525Z,82.93
2019-03-18T23:59:40.534Z,83.49
